Logo AVAMET
Benvolgut visitant, si us plau, ingressa Recuperar contrasenya

Borriana Platja del Grau

Dades diàries. Acumulats / Últims 30 dies disponibles

Data Temperatura (°C) Humitat rel. (%) Pressió rel. (hPa) Vent (km/h) Precipitació
Mínima Mitjana Màxima Amplitud
tèrmica
Mínima Mitjana Màxima Mínima Mitjana Màxima Predom. Mitjana Ràfega
màxima
Total
(mm)
Índex-n
Mínima Mitjana Màxima Mínima Mitjana Màxima n
0 a 1
P0 max
mm 5'
Dades mensuals acumulades fins l'últim dia disponible
10/2019 12,6 16,9 20,0 20,3 15,3 23,4 27,4 14,8 44 75 93 1.007 1.017 1.026   14,3 62,9 14,8
Dades anuals acumulades fins l'últim dia disponible
2019 3,7 14,6 24,2 18,0 8,7 21,1 30,8 27,1 17 74 97 993 1.020 1.037   13,6 111,0 149,0
Últims 30 dies disponibles
22-10-2019 12,6     13,9     15,3 2,7 76 86 93 1.008 1.013 1.021 O 17,1 51,8 14,4 0,42 0,60
21-10-2019 12,6     15,9     19,3 6,7 61 70 80 1.017 1.019 1.021 SSO 13,4 35,4 0,0
20-10-2019 14,8     18,7     20,9 6,1 51 70 88 1.007 1.011 1.017 SE 17,5 62,9 0,4
19-10-2019 16,2     21,7     27,4 11,2 44 72 90 1.009 1.012 1.015 ESE 16,8 59,5 0,0
18-10-2019 16,7     20,5     23,5 6,8 62 76 89 1.015 1.017 1.020 ESE 10,1 32,2 0,0
17-10-2019 17,4     18,9     22,4 5,0 73 79 84 1.018 1.019 1.020 ESE 13,8 31,5 0,0
10-10-2019 20,0     21,4     22,9 2,9 64 75 87 1.023 1.024 1.026 ESE 14,5 42,6 0,0
09-10-2019 18,5     21,7     25,1 6,6 73 83 91 1.018 1.020 1.022 ESE 12,9 37,0 0,0
08-10-2019 16,9     20,8     24,1 7,2 68 80 90 1.019 1.021 1.023 ESE 17,9 40,7 0,0
07-10-2019 17,3     21,0     23,8 6,5 55 76 91 1.017 1.019 1.021 ESE 12,8 43,4 0,0
06-10-2019 17,8     21,1     24,3 6,5 74 84 91 1.019 1.020 1.022 ESE 11,9 35,2 0,0
05-10-2019 17,6     21,4     25,3 7,7 63 73 83 1.017 1.018 1.020 ESE 12,2 35,4 0,0
04-10-2019 16,4     20,9     26,7 10,3 45 69 83 1.017 1.018 1.020 ESE 15,7 38,9 0,0
03-10-2019 17,4     20,5     23,2 5,8 49 63 79 1.018 1.019 1.020 ESE 19,2 40,7 0,0
02-10-2019 18,6     23,2     25,4 6,8 48 59 79 1.013 1.016 1.019 ESE 14,2 35,2 0,0
01-10-2019 19,7     22,5     25,0 5,3 71 86 92 1.011 1.014 1.018 ESE 9,3 37,0 0,0
30-09-2019 18,6     22,5     25,3 6,7 78 88 96 1.018 1.019 1.021 ESE 14,5 37,0 0,0
29-09-2019 19,4     22,2     24,7 5,3 79 88 92 1.018 1.020 1.022 ESE 12,4 37,0 0,0
28-09-2019 19,3     22,2     25,1 5,8 80 87 93 1.021 1.022 1.024 ESE 12,5 31,5 0,0
27-09-2019 20,3     22,6     25,0 4,7 71 86 92 1.019 1.020 1.021 ESE 11,4 22,5 0,0
26-09-2019 18,4     22,1     24,8 6,4 66 82 91 1.020 1.021 1.023 ESE 16,2 42,6 0,0
25-09-2019 20,7     23,3     26,0 5,3 61 73 85 1.015 1.018 1.020 ESE 15,4 40,7 0,0
24-09-2019 18,4     21,9     25,8 7,4 63 79 85 1.015 1.018 1.021 ESE 13,1 29,6 0,0
23-09-2019 19,2     22,7     25,3 6,1 54 75 83 1.018 1.021 1.023 ESE 15,5 51,8 0,0
22-09-2019 20,4     24,6     30,8 10,4 50 79 93 1.012 1.014 1.017 ESE 13,9 51,8 0,0
21-09-2019 20,4     22,7     24,7 4,3 72 85 90 1.013 1.016 1.018 ESE 14,0 42,6 0,0
20-09-2019 20,1     22,5     24,7 4,6 80 87 91 1.018 1.020 1.021 ESE 15,8 42,6 0,0
19-09-2019 19,3     22,5     25,1 5,8 68 80 90 1.019 1.019 1.021 ESE 14,7 32,2 0,0
18-09-2019 19,3     23,3     26,1 6,8 60 78 89 1.016 1.018 1.019 ESE 10,3 35,4 0,0
17-09-2019 19,9     22,9     25,1 5,2 76 84 92 1.017 1.019 1.021 ESE 11,7 35,4 0,0
Últims 13 mesos disponibles
09/2019 14,5 19,6 22,4 22,7 24,0 25,7 30,8 16,3 58 79 88 1.012 1.020 1.028 ESE 14,7 93,3 61,0
08/2019 17,2 21,5 24,2 24,8 25,5 27,4 30,1 12,9 62 80 89 1.013 1.018 1.023 S 11,3 93,3 16,8
07/2019 20,4 21,8 23,4 25,1 26,1 27,4 29,4 9,0 61 77 87 1.008 1.017 1.024 S 12,4 64,8 15,4
06/2019 11,5 17,9 22,3 21,0 19,0 23,4 28,5 17,0 62 76 88 1.010 1.019 1.025 S 12,6 69,2 0,0
05/2019 8,8 14,2 17,3 17,2 15,7 20,0 27,8 19,0 64 78 86 1.012 1.019 1.027 S 13,0 51,8 9,8
04/2019 8,5 11,4 15,3 14,5 14,7 17,6 22,8 14,3 51 73 95 1.002 1.016 1.028 SSO 17,1 77,7 21,8
03/2019 6,8 9,7 13,3 13,4 13,1 16,9 24,3 17,5 47 70 96 1.013 1.025 1.033 SSO 12,9 55,5 7,4
02/2019 4,1 7,5 11,7 11,3 8,7 14,7 19,6 15,5 31 72 85 996 1.027 1.037 SSO 12,9 111,0 0,0
01/2019 3,7 6,4 10,8 10,8 11,2 15,2 22,2 18,5 39 63 79 1.003 1.021 1.033 OSO 14,3 99,9 2,0
12/2018 5,7 9,0 12,8 12,5 9,6 16,1 21,3 15,6 52 76 86 1.022 1.029 1.033 OSO 10,9 45,0
11/2018 8,1 11,8 15,7 14,7 14,6 18,3 21,7 13,6 54 75 90 1.004 1.018 1.027 SO 13,0 61,1 68,0
10/2018 7,2 14,7 18,3 18,2 14,3 21,5 25,4 18,2 48 74 94 1.002 1.017 1.028 13,6 82,0 144,4
09/2018 17,1 20,2 22,1 23,5 23,5 26,3 28,4 11,3 63 80 88 1.015 1.022 1.031 12,4 59,5 71,2
Tots els anys disponibles
Temperatura (°C)
Humitat relativa (%)
Velocitat del vent i ràfega màxima (km/h)
Direcció del vent (°)
Pressió (hPa)
Precipitació (mm)
Nota sobre les dades: s'avisa a l'usuari de la provisionalitat i no oficialitat d'aquestes dades
Logo AVAMET blanc
Web allotjada a Sollutia
Llicència de Creative CommonsLa web d'AVAMET i els seus continguts estan subjectes a una llicència de
Reconeixement - No Comercial - Compartir igual
Últimes estacions: Sueca - Centre (Inforatge), Xàbia - La Plana (Soci), Banyeres de Mariola - Molí Sol (Soci), Villena - Villa Ventín (Soci), Benissa - Convent (Soci), Xàbia Fontanella (Soci), Castielfabib (Soci) --- Properes estacions: Villena - Serra de Salines (Soci) - - -